createdAt,value
2018-12-30T10:40:43.067Z,1.00
2018-12-30T10:43:14.099Z,1.00
2018-12-30T10:45:44.823Z,1.00
2018-12-30T10:48:15.675Z,1.00
2018-12-30T10:50:46.636Z,1.00
2018-12-30T10:53:17.835Z,1.00
2018-12-30T10:55:48.965Z,1.00
2018-12-30T10:58:20.149Z,1.00
2018-12-30T11:01:01.076Z,1.00
2018-12-30T11:03:45.236Z,1.00
2018-12-30T11:06:25.731Z,1.00
2018-12-30T11:09:03.227Z,1.00
2018-12-30T11:11:34.548Z,1.00
2018-12-30T11:14:05.548Z,1.00
2018-12-30T11:16:46.038Z,1.00
2018-12-30T11:19:17.568Z,1.00
2018-12-30T11:21:48.524Z,1.00
2018-12-30T11:24:19.912Z,1.00
2018-12-30T11:26:51.022Z,1.00
2018-12-30T11:29:31.827Z,1.00
2018-12-30T11:32:04.359Z,1.00
2018-12-30T11:34:35.372Z,1.00
2018-12-30T11:37:06.519Z,1.00
2018-12-30T11:39:37.410Z,1.00
2018-12-30T11:42:08.958Z,1.00
2018-12-30T11:44:40.030Z,1.00
2018-12-30T11:47:10.955Z,1.00
2018-12-30T11:49:43.349Z,1.00
2018-12-30T11:52:14.225Z,1.00
2018-12-30T11:54:45.110Z,1.00
2018-12-30T11:57:15.998Z,1.00
2018-12-30T11:59:46.979Z,1.00
2018-12-30T12:02:24.050Z,1.00
2018-12-30T12:04:50.817Z,1.00
2018-12-30T12:07:22.028Z,1.00
2018-12-30T12:09:53.004Z,1.00
2018-12-30T12:12:24.203Z,1.00
2018-12-30T12:14:55.072Z,1.00
2018-12-30T12:17:25.882Z,1.00
2018-12-30T12:19:56.916Z,1.00
2018-12-30T12:22:27.876Z,1.00
2018-12-30T12:24:58.852Z,1.00
2018-12-30T12:27:29.758Z,1.00
2018-12-30T12:30:00.983Z,1.00
2018-12-30T12:32:32.096Z,1.00
2018-12-30T12:35:13.566Z,1.00
2018-12-30T12:37:44.480Z,1.00
2018-12-30T12:40:15.348Z,1.00
2018-12-30T12:42:46.165Z,1.00
2018-12-30T12:45:26.606Z,1.00
2018-12-30T12:47:57.609Z,1.00
2018-12-30T12:50:28.569Z,1.00
2018-12-30T12:53:01.068Z,1.00
2018-12-30T12:55:32.001Z,1.00
2018-12-30T12:58:03.125Z,1.00
2018-12-30T13:00:33.953Z,1.00
2018-12-30T13:03:04.902Z,1.00
2018-12-30T13:05:36.489Z,1.00
2018-12-30T13:08:07.421Z,1.00
2018-12-30T13:10:38.415Z,1.00
2018-12-30T13:13:09.696Z,1.00
2018-12-30T13:15:40.879Z,1.00
2018-12-30T13:18:11.927Z,1.00
2018-12-30T13:20:42.925Z,1.00
2018-12-30T13:23:13.774Z,1.00
2018-12-30T13:25:44.814Z,1.00
2018-12-30T13:28:29.260Z,1.00
2018-12-30T13:31:00.150Z,1.00
2018-12-30T13:33:41.301Z,1.00
2018-12-30T13:36:14.485Z,1.00
2018-12-30T13:38:45.417Z,1.00
2018-12-30T13:41:16.231Z,1.00
2018-12-30T13:43:47.051Z,1.00
2018-12-30T13:46:17.816Z,1.00
2018-12-30T13:48:48.915Z,1.00
2018-12-30T13:51:21.189Z,1.00
2018-12-30T13:53:51.448Z,1.00
2018-12-30T13:56:22.003Z,1.00
2018-12-30T13:58:50.869Z,1.00
2018-12-30T14:01:24.526Z,1.00
2018-12-30T14:03:55.137Z,1.00
2018-12-30T14:06:25.966Z,1.00
2018-12-30T14:08:56.497Z,1.00
2018-12-30T14:11:29.263Z,1.00
2018-12-30T14:14:10.026Z,1.00
2018-12-30T14:16:40.884Z,1.00
2018-12-30T14:19:11.728Z,1.00
2018-12-30T14:21:42.842Z,1.00
2018-12-30T14:24:23.699Z,1.00
2018-12-30T14:26:59.841Z,1.00
2018-12-30T14:29:27.543Z,1.00
2018-12-30T14:31:58.275Z,1.00
2018-12-30T14:34:29.578Z,1.00
2018-12-30T14:37:00.838Z,1.00
2018-12-30T14:39:36.973Z,1.00
2018-12-30T14:42:07.738Z,1.00
2018-12-30T14:44:38.643Z,1.00
2018-12-30T14:47:09.615Z,1.00
2018-12-30T14:49:40.807Z,1.00
2018-12-30T14:52:12.029Z,1.00
2018-12-30T14:54:43.240Z,1.00
2018-12-30T14:57:14.297Z,1.00
2018-12-30T14:59:54.952Z,1.00
2018-12-30T15:02:25.864Z,1.00
2018-12-30T15:04:56.742Z,1.00
2018-12-30T15:07:38.495Z,1.00
2018-12-30T15:10:19.443Z,1.00
2018-12-30T15:13:00.533Z,1.00
2018-12-30T15:15:31.310Z,1.00
2018-12-30T15:18:02.577Z,1.00
2018-12-30T15:20:33.373Z,1.00
2018-12-30T15:23:04.259Z,1.00
2018-12-30T15:25:45.528Z,1.00
2018-12-30T15:28:16.355Z,1.00
2018-12-30T15:30:47.422Z,1.00
2018-12-30T15:33:37.379Z,1.00
2018-12-30T15:36:09.032Z,1.00
2018-12-30T15:38:40.350Z,1.00
2018-12-30T15:41:11.424Z,1.00
2018-12-30T15:43:52.621Z,1.00
2018-12-30T15:46:23.527Z,1.00
2018-12-30T15:48:55.017Z,1.00
2018-12-30T15:51:25.823Z,1.00
2018-12-30T15:53:56.715Z,1.00
2018-12-30T15:56:27.736Z,1.00
2018-12-30T15:58:58.740Z,3.70
2018-12-30T16:01:39.536Z,6.20
2018-12-30T16:04:10.190Z,7.60
2018-12-30T16:06:41.185Z,9.90
2018-12-30T16:09:12.563Z,11.60
2018-12-30T16:11:43.510Z,13.10
2018-12-30T16:14:24.653Z,14.30
2018-12-30T16:16:56.414Z,14.90
2018-12-30T16:19:27.325Z,15.40
2018-12-30T16:22:08.838Z,15.30
2018-12-30T16:24:39.831Z,15.70
2018-12-30T16:27:11.031Z,16.00
2018-12-30T16:29:52.637Z,16.10
2018-12-30T16:32:41.669Z,16.40
2018-12-30T16:35:22.437Z,16.80
2018-12-30T16:37:53.704Z,17.20
2018-12-30T16:40:25.016Z,17.50
2018-12-30T16:43:05.531Z,18.00
2018-12-30T16:45:36.548Z,18.20
2018-12-30T16:48:07.888Z,18.00
2018-12-30T16:50:48.722Z,17.90
2018-12-30T16:53:19.311Z,17.70
2018-12-30T16:55:49.940Z,17.70
2018-12-30T16:58:20.616Z,17.30
2018-12-30T17:00:51.792Z,17.50
2018-12-30T17:03:22.930Z,17.50
2018-12-30T17:06:04.027Z,17.40
2018-12-30T17:08:48.787Z,17.50
2018-12-30T17:11:29.615Z,17.70
2018-12-30T17:14:10.216Z,17.40
2018-12-30T17:16:40.907Z,18.00
2018-12-30T17:19:11.535Z,18.20
2018-12-30T17:21:52.772Z,18.40
2018-12-30T17:24:23.687Z,19.00
2018-12-30T17:26:54.140Z,18.80
2018-12-30T17:29:24.886Z,18.70
2018-12-30T17:31:55.813Z,18.80
2018-12-30T17:34:36.682Z,19.00
2018-12-30T17:37:21.017Z,19.20
2018-12-30T17:40:02.595Z,19.30
2018-12-30T17:42:44.401Z,19.40
2018-12-30T17:45:25.407Z,19.70
2018-12-30T17:47:56.380Z,19.90
2018-12-30T17:50:27.289Z,19.90
2018-12-30T17:52:58.577Z,19.80
2018-12-30T17:55:29.466Z,19.60
2018-12-30T17:58:00.634Z,20.00
2018-12-30T18:00:41.186Z,20.10
2018-12-30T18:03:22.022Z,20.00
2018-12-30T18:06:02.675Z,19.90
2018-12-30T18:08:43.295Z,20.10
2018-12-30T18:11:14.311Z,20.20
2018-12-30T18:13:45.432Z,20.10
2018-12-30T18:16:16.578Z,20.00
2018-12-30T18:18:47.553Z,20.10
2018-12-30T18:21:18.488Z,19.90
2018-12-30T18:23:59.326Z,20.00
2018-12-30T18:26:37.580Z,20.30
2018-12-30T18:29:02.285Z,20.60
2018-12-30T18:31:33.244Z,20.60
2018-12-30T18:34:13.745Z,20.40
2018-12-30T18:36:44.632Z,20.80
2018-12-30T18:39:16.325Z,20.90
2018-12-30T18:41:57.133Z,20.80
2018-12-30T18:44:28.130Z,21.00
2018-12-30T18:46:59.291Z,20.90
2018-12-30T18:49:39.809Z,20.70
2018-12-30T18:52:20.867Z,20.40
2018-12-30T18:54:52.025Z,20.20
2018-12-30T18:57:23.191Z,20.10
2018-12-30T19:00:04.236Z,20.30
2018-12-30T19:02:35.117Z,20.40
2018-12-30T19:05:06.544Z,20.20
2018-12-30T19:07:37.535Z,20.50
2018-12-30T19:10:18.694Z,20.80
2018-12-30T19:12:59.255Z,20.90
2018-12-30T19:15:39.627Z,21.00
2018-12-30T19:18:20.874Z,21.30
2018-12-30T19:21:02.098Z,21.40
2018-12-30T19:23:42.493Z,21.40
2018-12-30T19:26:23.423Z,21.50
2018-12-30T19:28:54.550Z,21.30
2018-12-30T19:31:35.436Z,21.30
2018-12-30T19:34:24.321Z,21.30
2018-12-30T19:37:10.383Z,21.60
2018-12-30T19:39:41.233Z,21.60
2018-12-30T19:42:12.871Z,21.60
2018-12-30T19:44:45.911Z,21.70
2018-12-30T19:47:16.575Z,21.70
2018-12-30T19:49:47.979Z,21.90
2018-12-30T19:52:28.957Z,21.90
2018-12-30T19:55:10.297Z,22.40
2018-12-30T19:57:50.811Z,22.00
2018-12-30T20:00:22.003Z,22.10
2018-12-30T20:02:53.192Z,22.20
2018-12-30T20:05:25.707Z,22.30
2018-12-30T20:08:06.738Z,22.30
2018-12-30T20:10:38.104Z,22.20
2018-12-30T20:13:09.438Z,22.30
2018-12-30T20:15:54.553Z,22.40
2018-12-30T20:18:25.969Z,22.40
2018-12-30T20:21:13.139Z,22.50
2018-12-30T20:23:53.816Z,22.50
2018-12-30T20:26:29.878Z,22.50
2018-12-30T20:28:57.619Z,22.50
2018-12-30T20:31:28.601Z,22.40
2018-12-30T20:33:59.635Z,22.60
2018-12-30T20:36:40.629Z,22.60
2018-12-30T20:39:12.228Z,22.60
2018-12-30T20:41:43.249Z,22.70
2018-12-30T20:44:23.965Z,22.60
2018-12-30T20:46:54.625Z,22.70
2018-12-30T20:49:28.815Z,22.70
2018-12-30T20:52:00.589Z,22.70
2018-12-30T20:54:32.065Z,22.70
2018-12-30T20:57:03.253Z,22.70
2018-12-30T20:59:47.285Z,22.70
2018-12-30T21:02:28.418Z,22.70
2018-12-30T21:04:59.673Z,22.80
2018-12-30T21:07:31.071Z,22.80
2018-12-30T21:10:02.339Z,22.80
2018-12-30T21:12:33.382Z,22.90
2018-12-30T21:15:13.982Z,22.90
2018-12-30T21:17:45.063Z,22.90
2018-12-30T21:20:26.249Z,23.00
2018-12-30T21:22:56.977Z,23.00
2018-12-30T21:25:27.642Z,22.90
2018-12-30T21:27:58.608Z,22.90
2018-12-30T21:30:29.893Z,22.90
2018-12-30T21:33:00.857Z,23.10
2018-12-30T21:35:42.359Z,22.90
2018-12-30T21:38:13.757Z,23.00
2018-12-30T21:40:59.437Z,22.50
2018-12-30T21:43:40.831Z,23.10
2018-12-30T21:46:21.814Z,23.10
2018-12-30T21:49:02.397Z,23.20
2018-12-30T21:51:42.815Z,23.20
2018-12-30T21:54:24.199Z,23.10
2018-12-30T21:56:55.645Z,23.20
2018-12-30T21:59:26.524Z,23.70
2018-12-30T22:02:07.346Z,23.20
2018-12-30T22:04:38.160Z,23.20
2018-12-30T22:07:09.343Z,23.20
2018-12-30T22:09:40.422Z,23.20
2018-12-30T22:12:11.642Z,23.10
2018-12-30T22:14:42.871Z,23.10
2018-12-30T22:17:23.713Z,23.20
2018-12-30T22:20:05.004Z,23.20
2018-12-30T22:22:49.417Z,23.20
2018-12-30T22:25:20.522Z,23.30
2018-12-30T22:28:01.283Z,23.30
2018-12-30T22:30:46.012Z,23.20
2018-12-30T22:33:35.213Z,23.20
2018-12-30T22:36:16.654Z,23.30
2018-12-30T22:38:47.717Z,23.30
2018-12-30T22:41:36.215Z,23.80
2018-12-30T22:44:07.506Z,23.30
2018-12-30T22:46:38.477Z,23.30
2018-12-30T22:49:34.648Z,23.30
2018-12-30T22:52:06.051Z,23.30
2018-12-30T22:54:36.696Z,23.40
2018-12-30T22:57:07.853Z,23.30
2018-12-30T22:59:39.128Z,23.30
2018-12-30T23:02:10.420Z,23.30
2018-12-30T23:04:42.050Z,23.30
2018-12-30T23:07:13.415Z,23.40
2018-12-30T23:09:44.672Z,23.40
2018-12-30T23:12:25.342Z,23.40
2018-12-30T23:15:06.143Z,23.40
2018-12-30T23:17:46.844Z,23.40
2018-12-30T23:20:17.916Z,23.40
2018-12-30T23:22:49.577Z,23.40
2018-12-30T23:25:30.298Z,23.40
2018-12-30T23:28:00.893Z,23.30
2018-12-30T23:30:31.931Z,23.40
2018-12-30T23:33:02.846Z,23.40
2018-12-30T23:35:41.248Z,23.40
2018-12-30T23:38:22.138Z,23.50
2018-12-30T23:41:03.723Z,23.50
2018-12-30T23:43:45.311Z,23.60
2018-12-30T23:46:16.478Z,23.50
2018-12-30T23:48:47.448Z,23.50
2018-12-30T23:51:28.014Z,23.40
2018-12-30T23:54:08.680Z,23.40
2018-12-30T23:56:50.417Z,23.40
2018-12-30T23:59:22.779Z,23.30
